Time;durP1;ratioP1;P1;durP2;ratioP2;P2;SDS_P1;SDS_P2;PMS_P1;PMS_P2;Temp;Humidity;BMP_temperature;BMP_pressure;BME280_temperature;BME280_humidity;BME280_pressure;Samples;Min_cycle;Max_cycle;Signal;HPM_P1;HPM_P2
2023/02/08 00:01:13;;;;;;;72.43;51.50;;;-4.70;99.90;;;;;;5059971;28;20577;-44
2023/02/08 00:03:39;;;;;;;70.03;49.40;;;-4.70;99.90;;;;;;5060439;28;20695;-44
2023/02/08 00:06:06;;;;;;;69.77;49.80;;;-4.60;99.90;;;;;;5059843;28;20447;-45
2023/02/08 00:08:32;;;;;;;69.60;48.90;;;-4.70;99.90;;;;;;5060084;28;20222;-43
2023/02/08 00:10:58;;;;;;;67.85;48.15;;;-4.70;99.90;;;;;;5059854;28;20192;-47
2023/02/08 00:13:24;;;;;;;67.50;47.77;;;-4.70;99.90;;;;;;5059635;28;20633;-44
2023/02/08 00:15:51;;;;;;;67.00;47.07;;;-4.80;99.90;;;;;;5059882;28;20431;-46
2023/02/08 00:18:18;;;;;;;65.50;47.33;;;-4.90;99.90;;;;;;5058574;28;20217;-45
2023/02/08 00:20:44;;;;;;;68.53;47.40;;;-4.90;99.90;;;;;;5058187;28;20708;-45
2023/02/08 00:23:11;;;;;;;67.35;45.15;;;-4.90;99.90;;;;;;5058713;28;20246;-46
2023/02/08 00:25:37;;;;;;;70.65;46.88;;;-4.90;99.90;;;;;;5058284;28;20294;-46
2023/02/08 00:28:03;;;;;;;62.25;47.70;;;-5.00;99.90;;;;;;5059466;28;20205;-47
2023/02/08 00:30:29;;;;;;;57.72;44.05;;;-5.00;99.90;;;;;;5059684;28;20192;-48
2023/02/08 00:32:54;;;;;;;63.77;45.00;;;-5.00;99.90;;;;;;5059812;28;20185;-44
2023/02/08 00:35:20;;;;;;;71.70;46.27;;;-5.10;99.90;;;;;;5060007;28;20864;-45
2023/02/08 00:37:46;;;;;;;66.10;45.87;;;-5.00;99.90;;;;;;5059303;28;20524;-43
2023/02/08 00:40:11;;;;;;;64.90;42.47;;;-5.10;99.90;;;;;;5059514;28;20348;-49
2023/02/08 00:42:37;;;;;;;64.50;43.63;;;-5.10;99.90;;;;;;5059250;28;20209;-51
2023/02/08 00:45:03;;;;;;;70.20;45.70;;;-5.10;99.90;;;;;;5059377;28;20186;-46
2023/02/08 00:47:29;;;;;;;64.55;43.28;;;-5.10;99.90;;;;;;5059308;28;20631;-45
2023/02/08 00:49:55;;;;;;;59.10;43.43;;;-5.20;99.90;;;;;;5059648;28;20417;-44
2023/02/08 00:52:20;;;;;;;68.27;45.23;;;-5.20;99.90;;;;;;5058746;28;20215;-46
2023/02/08 00:54:46;;;;;;;68.23;44.50;;;-5.30;99.90;;;;;;5059533;28;20188;-51
2023/02/08 00:57:12;;;;;;;63.87;42.30;;;-5.30;99.90;;;;;;5059042;28;20475;-47
2023/02/08 00:59:38;;;;;;;59.63;42.38;;;-5.30;99.90;;;;;;5058752;28;20440;-50
2023/02/08 01:02:04;;;;;;;66.37;43.40;;;-5.30;99.90;;;;;;5059034;28;20681;-44
2023/02/08 01:04:30;;;;;;;63.67;42.92;;;-5.30;99.90;;;;;;5059428;28;20181;-47
2023/02/08 01:06:56;;;;;;;63.27;42.40;;;-5.30;99.90;;;;;;5059022;28;20188;-49
2023/02/08 01:09:22;;;;;;;61.13;42.27;;;-5.30;99.90;;;;;;5059118;28;20207;-44
2023/02/08 01:11:48;;;;;;;64.93;44.50;;;-5.30;99.90;;;;;;5059172;28;20651;-46
2023/02/08 01:14:13;;;;;;;71.53;45.23;;;-5.30;99.90;;;;;;5059211;28;20212;-46
2023/02/08 01:16:39;;;;;;;68.97;43.30;;;-5.40;99.90;;;;;;5059040;28;20470;-48
2023/02/08 01:19:05;;;;;;;63.33;42.87;;;-5.40;99.90;;;;;;5057614;28;20185;-47
2023/02/08 01:21:33;;;;;;;64.77;42.37;;;-5.40;99.90;;;;;;5059005;28;20197;-47
2023/02/08 01:24:00;;;;;;;60.28;42.60;;;-5.30;99.90;;;;;;5058773;28;21274;-45
2023/02/08 01:26:26;;;;;;;61.50;42.90;;;-5.40;99.90;;;;;;5059063;28;20182;-44
2023/02/08 01:28:53;;;;;;;65.22;43.13;;;-5.40;99.90;;;;;;5061753;28;20183;-46
2023/02/08 01:31:27;;;;;;;64.85;44.65;;;-5.40;99.90;;;;;;5062809;28;20344;-45
2023/02/08 01:33:54;;;;;;;55.17;40.60;;;-5.40;99.90;;;;;;5062980;28;20196;-46
2023/02/08 01:36:21;;;;;;;63.65;43.25;;;-5.40;99.90;;;;;;5061309;28;20299;-46
2023/02/08 01:38:46;;;;;;;65.43;42.72;;;-5.40;99.90;;;;;;5062524;28;20304;-47
2023/02/08 01:41:21;;;;;;;62.27;42.80;;;-5.40;99.90;;;;;;5062489;28;20706;-44
2023/02/08 01:44:06;;;;;;;61.47;42.08;;;-5.50;99.90;;;;;;5062430;28;20181;-44
2023/02/08 01:46:34;;;;;;;58.55;41.45;;;-5.50;99.90;;;;;;5062653;28;20192;-44
2023/02/08 01:49:08;;;;;;;60.33;41.75;;;-5.50;99.90;;;;;;5062474;28;20268;-47
2023/02/08 01:51:39;;;;;;;64.13;43.40;;;-5.40;99.90;;;;;;5062138;28;20231;-45
2023/02/08 01:54:07;;;;;;;68.20;45.05;;;-5.40;99.90;;;;;;5062257;28;20185;-45
2023/02/08 01:56:36;;;;;;;59.58;42.38;;;-5.40;99.90;;;;;;5062449;28;20185;-45
2023/02/08 01:59:08;;;;;;;62.53;42.42;;;-5.30;99.90;;;;;;5060578;28;20663;-50
2023/02/08 02:01:34;;;;;;;65.60;43.97;;;-5.30;99.90;;;;;;5062108;28;20205;-43
2023/02/08 02:04:03;;;;;;;58.28;41.85;;;-5.30;99.90;;;;;;5060753;28;20244;-46
2023/02/08 02:06:34;;;;;;;69.18;44.90;;;-5.30;99.90;;;;;;5061076;28;20189;-45
2023/02/08 02:09:22;;;;;;;60.20;41.78;;;-5.30;99.90;;;;;;5061984;28;20466;-44
2023/02/08 02:11:52;;;;;;;62.80;43.05;;;-5.40;99.90;;;;;;5062482;28;21177;-43
2023/02/08 02:14:18;;;;;;;58.95;41.30;;;-5.30;99.90;;;;;;5062267;28;20177;-44
2023/02/08 02:16:44;;;;;;;64.13;40.78;;;-5.40;99.90;;;;;;5062334;28;20591;-47
2023/02/08 02:19:33;;;;;;;61.00;41.60;;;-5.40;99.90;;;;;;5061961;28;20235;-47
2023/02/08 02:22:15;;;;;;;64.78;41.47;;;-5.40;99.90;;;;;;5061308;28;20257;-45
2023/02/08 02:24:59;;;;;;;59.65;42.10;;;-5.40;99.90;;;;;;5061937;28;20174;-46
2023/02/08 02:27:36;;;;;;;69.22;40.78;;;-5.50;99.90;;;;;;5061863;28;20427;-44
2023/02/08 02:30:14;;;;;;;59.70;39.97;;;-5.50;99.90;;;;;;5061745;28;20667;-45
2023/02/08 02:32:59;;;;;;;61.33;41.75;;;-5.60;99.90;;;;;;5060475;28;20211;-46
2023/02/08 02:35:39;;;;;;;55.00;39.72;;;-5.60;99.90;;;;;;5061479;28;20679;-46
2023/02/08 02:38:11;;;;;;;65.97;40.65;;;-5.60;99.90;;;;;;5061897;28;20726;-45
2023/02/08 02:40:43;;;;;;;57.78;40.42;;;-5.60;99.90;;;;;;5061198;28;20184;-44
2023/02/08 02:43:43;;;;;;;58.65;39.92;;;-5.60;99.90;;;;;;5061412;28;20184;-44
2023/02/08 02:46:27;;;;;;;57.35;40.97;;;-5.60;99.90;;;;;;5061709;28;20166;-44
2023/02/08 02:48:58;;;;;;;54.28;38.20;;;-5.60;99.90;;;;;;5061968;28;20348;-49
2023/02/08 02:51:31;;;;;;;55.55;39.30;;;-5.60;99.90;;;;;;5061084;28;20314;-46
2023/02/08 02:54:14;;;;;;;57.42;38.92;;;-5.60;99.90;;;;;;5060900;28;20197;-48
2023/02/08 02:56:44;;;;;;;60.97;39.95;;;-5.70;99.90;;;;;;5061455;28;20531;-44
2023/02/08 02:59:13;;;;;;;55.78;38.92;;;-5.70;99.90;;;;;;5061145;28;20183;-45
2023/02/08 03:01:43;;;;;;;60.75;38.75;;;-5.60;99.90;;;;;;5059611;28;20735;-48
2023/02/08 03:04:33;;;;;;;53.08;38.17;;;-5.70;99.90;;;;;;5056662;28;20185;-46
2023/02/08 03:07:05;;;;;;;60.13;37.10;;;-5.70;99.90;;;;;;5061037;28;20666;-43
2023/02/08 03:09:49;;;;;;;55.92;38.35;;;-5.70;99.90;;;;;;5060920;28;20248;-44
2023/02/08 03:12:40;;;;;;;55.58;38.90;;;-5.70;99.90;;;;;;5061259;28;20188;-47
2023/02/08 03:15:43;;;;;;;56.33;38.25;;;-5.80;99.90;;;;;;5060809;28;20181;-46
2023/02/08 03:18:20;;;;;;;51.53;36.97;;;-5.80;99.90;;;;;;5060994;28;20188;-44
2023/02/08 03:20:52;;;;;;;52.55;36.47;;;-5.80;99.90;;;;;;5061442;28;20220;-44
2023/02/08 03:23:55;;;;;;;49.72;37.28;;;-5.70;99.90;;;;;;5060937;28;20470;-45
2023/02/08 03:26:26;;;;;;;61.25;39.17;;;-5.70;99.90;;;;;;5026330;28;20551;-49
2023/02/08 03:28:57;;;;;;;57.92;38.15;;;-5.70;99.90;;;;;;5060780;28;20542;-45
2023/02/08 03:31:29;;;;;;;51.33;37.47;;;-5.70;99.90;;;;;;5060372;28;20199;-48
2023/02/08 03:34:08;;;;;;;53.88;38.40;;;-5.70;99.90;;;;;;5060491;28;20212;-43
2023/02/08 03:36:50;;;;;;;54.17;37.20;;;-5.60;99.90;;;;;;5059778;28;20207;-48
2023/02/08 03:39:21;;;;;;;62.38;36.67;;;-5.60;99.90;;;;;;5059900;28;20189;-45
2023/02/08 03:41:50;;;;;;;53.20;39.78;;;-5.60;99.90;;;;;;5061164;28;21055;-47
2023/02/08 03:44:22;;;;;;;54.60;38.75;;;-5.60;99.90;;;;;;5060284;28;20226;-46
2023/02/08 03:46:53;;;;;;;56.53;37.55;;;-5.60;99.90;;;;;;5060435;28;20208;-44
2023/02/08 03:49:28;;;;;;;53.85;38.08;;;-5.50;99.90;;;;;;5060206;28;20173;-44
2023/02/08 03:51:58;;;;;;;50.45;36.80;;;-5.60;99.90;;;;;;5059359;28;20184;-44
2023/02/08 03:54:28;;;;;;;53.63;36.05;;;-5.60;99.90;;;;;;5060204;28;20211;-44
2023/02/08 03:57:06;;;;;;;53.53;37.20;;;-5.60;99.90;;;;;;5059573;28;21032;-46
2023/02/08 03:59:38;;;;;;;51.83;37.20;;;-5.60;99.90;;;;;;5059705;28;20644;-44
2023/02/08 04:02:08;;;;;;;52.60;36.53;;;-5.60;99.90;;;;;;5059880;28;20221;-46
2023/02/08 04:04:38;;;;;;;59.42;37.55;;;-5.60;99.90;;;;;;5059892;28;20487;-46
2023/02/08 04:07:04;;;;;;;56.70;36.25;;;-5.70;99.90;;;;;;5060280;28;20188;-45
2023/02/08 04:09:30;;;;;;;55.28;36.83;;;-5.70;99.90;;;;;;5060182;28;20173;-46
2023/02/08 04:11:56;;;;;;;60.80;37.87;;;-5.70;99.90;;;;;;5060170;28;20597;-45
2023/02/08 04:14:21;;;;;;;52.43;36.70;;;-5.70;99.90;;;;;;5059314;28;20197;-47
2023/02/08 04:16:47;;;;;;;54.27;35.90;;;-5.70;99.90;;;;;;5060076;28;20696;-44
2023/02/08 04:19:12;;;;;;;53.30;38.23;;;-5.70;99.90;;;;;;5058813;28;20316;-47
2023/02/08 04:21:38;;;;;;;56.13;37.87;;;-5.70;99.90;;;;;;5059395;28;20205;-47
2023/02/08 04:24:04;;;;;;;54.77;36.80;;;-5.80;99.90;;;;;;5058313;28;20190;-50
2023/02/08 04:26:29;;;;;;;55.50;35.87;;;-5.80;99.90;;;;;;5057989;28;20213;-45
2023/02/08 04:28:55;;;;;;;54.17;35.97;;;-5.80;99.90;;;;;;5059340;28;20181;-48
2023/02/08 04:31:21;;;;;;;50.13;36.50;;;-5.80;99.90;;;;;;5059186;28;20269;-49
2023/02/08 04:33:46;;;;;;;54.93;37.10;;;-5.80;99.90;;;;;;5059622;28;20177;-47
2023/02/08 04:36:12;;;;;;;61.03;36.50;;;-5.90;99.90;;;;;;5058100;28;20284;-47
2023/02/08 04:38:37;;;;;;;58.27;37.63;;;-5.90;99.90;;;;;;5059670;28;20208;-45
2023/02/08 04:41:03;;;;;;;47.97;34.57;;;-5.90;99.90;;;;;;5059685;28;20236;-46
2023/02/08 04:43:29;;;;;;;54.67;35.07;;;-6.00;99.90;;;;;;5059864;28;20208;-44
2023/02/08 04:45:55;;;;;;;55.90;36.53;;;-5.90;99.90;;;;;;5059155;28;20265;-49
2023/02/08 04:48:21;;;;;;;54.50;35.35;;;-6.00;99.90;;;;;;5059630;28;20181;-44
2023/02/08 04:50:46;;;;;;;54.70;37.33;;;-6.00;99.90;;;;;;5058916;28;20663;-47
2023/02/08 04:53:12;;;;;;;54.40;35.80;;;-6.00;99.90;;;;;;5059539;28;20185;-45
2023/02/08 04:55:38;;;;;;;54.53;37.80;;;-6.00;99.90;;;;;;5058771;28;20189;-49
2023/02/08 04:58:04;;;;;;;55.00;36.20;;;-6.00;99.90;;;;;;5060278;28;20628;-46
2023/02/08 05:00:30;;;;;;;51.15;35.88;;;-6.00;99.90;;;;;;5059702;28;20173;-47
2023/02/08 05:02:57;;;;;;;54.50;37.25;;;-6.10;99.90;;;;;;5059094;28;20205;-45
2023/02/08 05:05:26;;;;;;;56.72;37.17;;;-6.10;99.90;;;;;;5058157;28;20209;-43
2023/02/08 05:07:52;;;;;;;57.60;36.50;;;-6.10;99.90;;;;;;5059709;28;20209;-46
2023/02/08 05:10:18;;;;;;;55.60;38.50;;;-6.10;99.90;;;;;;5059672;28;20205;-45
2023/02/08 05:12:44;;;;;;;60.85;40.45;;;-5.90;99.90;;;;;;5059305;28;20185;-46
2023/02/08 05:15:10;;;;;;;61.57;38.57;;;-5.90;99.90;;;;;;5059314;28;20188;-47
2023/02/08 05:17:35;;;;;;;63.28;38.28;;;-5.90;99.90;;;;;;5059299;28;20551;-44
2023/02/08 05:20:02;;;;;;;59.63;39.70;;;-5.90;99.90;;;;;;5058698;28;20685;-46
2023/02/08 05:22:28;;;;;;;64.68;39.45;;;-5.80;99.90;;;;;;5057109;28;20236;-46
2023/02/08 05:24:53;;;;;;;56.27;36.67;;;-5.80;99.90;;;;;;5058801;28;20258;-47
2023/02/08 05:27:19;;;;;;;63.53;38.57;;;-5.80;99.90;;;;;;5059412;28;20181;-44
2023/02/08 05:29:45;;;;;;;60.70;37.17;;;-5.80;99.90;;;;;;5058840;28;20724;-48
2023/02/08 05:32:11;;;;;;;61.03;38.13;;;-5.80;99.90;;;;;;5058853;28;20431;-47
2023/02/08 05:34:37;;;;;;;58.15;39.38;;;-5.70;99.90;;;;;;5057878;28;20217;-43
2023/02/08 05:37:03;;;;;;;62.33;38.80;;;-5.50;99.90;;;;;;5058647;28;20540;-49
2023/02/08 05:39:29;;;;;;;61.30;38.70;;;-5.50;99.90;;;;;;5059123;28;20460;-45
2023/02/08 05:41:54;;;;;;;59.47;36.97;;;-5.40;99.90;;;;;;5058606;28;20989;-46
2023/02/08 05:44:20;;;;;;;60.10;36.40;;;-5.30;99.90;;;;;;5058932;28;20181;-46
2023/02/08 05:46:46;;;;;;;65.03;40.50;;;-5.20;99.90;;;;;;5058607;28;20256;-45
2023/02/08 05:49:11;;;;;;;63.13;39.20;;;-5.00;99.90;;;;;;5059111;28;20216;-46
2023/02/08 05:51:37;;;;;;;56.97;38.57;;;-4.90;99.90;;;;;;5058677;28;20275;-48
2023/02/08 05:54:02;;;;;;;58.77;39.00;;;-4.80;99.90;;;;;;5058758;28;20492;-49
2023/02/08 05:56:28;;;;;;;62.07;39.40;;;-4.70;99.90;;;;;;5058996;28;20272;-44
2023/02/08 05:58:54;;;;;;;60.57;38.80;;;-4.70;99.90;;;;;;5058565;28;20228;-47
2023/02/08 06:01:20;;;;;;;60.63;39.47;;;-4.70;99.90;;;;;;5059240;28;20228;-45
2023/02/08 06:03:46;;;;;;;59.80;37.53;;;-4.60;99.90;;;;;;5056961;28;20458;-47
2023/02/08 06:06:12;;;;;;;66.37;40.90;;;-4.50;99.90;;;;;;5058491;28;20687;-46
2023/02/08 06:08:39;;;;;;;59.97;38.67;;;-4.50;99.90;;;;;;5040364;28;20189;-48
2023/02/08 06:11:05;;;;;;;63.47;39.55;;;-4.40;99.90;;;;;;5058406;28;20415;-47
2023/02/08 06:13:31;;;;;;;65.05;40.75;;;-4.40;99.90;;;;;;5058841;28;20711;-43
2023/02/08 06:15:56;;;;;;;69.80;40.53;;;-4.40;99.90;;;;;;5060927;28;20283;-43
2023/02/08 06:18:22;;;;;;;59.93;39.60;;;-4.30;99.90;;;;;;5062295;28;20692;-44
2023/02/08 06:20:52;;;;;;;57.60;39.92;;;-4.30;99.90;;;;;;5061823;28;20185;-44
2023/02/08 06:23:17;;;;;;;58.75;40.63;;;-4.30;99.90;;;;;;5062424;28;20227;-44
2023/02/08 06:25:43;;;;;;;56.03;38.13;;;-4.30;99.90;;;;;;5061642;28;20587;-48
2023/02/08 06:28:09;;;;;;;63.20;39.70;;;-4.30;99.90;;;;;;5062227;28;20208;-44
2023/02/08 06:30:36;;;;;;;56.50;39.15;;;-4.30;99.90;;;;;;5061868;28;20173;-44
2023/02/08 06:33:01;;;;;;;58.08;40.00;;;-4.20;99.90;;;;;;5060533;28;20573;-45
2023/02/08 06:35:27;;;;;;;58.30;38.10;;;-4.20;99.90;;;;;;5061671;28;20173;-44
2023/02/08 06:37:53;;;;;;;61.70;39.20;;;-4.20;99.90;;;;;;5061775;28;20993;-44
2023/02/08 06:40:18;;;;;;;59.67;38.90;;;-4.20;99.90;;;;;;5062200;28;20275;-45
2023/02/08 06:42:46;;;;;;;56.33;38.00;;;-4.20;99.90;;;;;;5062198;28;21009;-44
2023/02/08 06:45:12;;;;;;;60.97;38.80;;;-4.20;99.90;;;;;;5061727;28;20181;-46
2023/02/08 06:47:37;;;;;;;57.17;39.60;;;-4.20;99.90;;;;;;5061827;28;20627;-45
2023/02/08 06:50:03;;;;;;;57.90;37.67;;;-4.20;99.90;;;;;;5061265;28;20237;-48
2023/02/08 06:52:29;;;;;;;58.90;38.10;;;-4.20;99.90;;;;;;5061641;28;20185;-46
2023/02/08 06:54:54;;;;;;;57.83;39.30;;;-4.10;99.90;;;;;;5061689;28;20475;-43
2023/02/08 06:57:20;;;;;;;53.10;38.95;;;-4.10;99.90;;;;;;5061407;28;20189;-47
2023/02/08 06:59:46;;;;;;;58.57;38.50;;;-4.10;99.90;;;;;;5061626;28;20219;-44
2023/02/08 07:02:13;;;;;;;55.40;38.37;;;-4.10;99.90;;;;;;5060994;28;20224;-43
2023/02/08 07:04:39;;;;;;;63.60;40.20;;;-4.10;99.90;;;;;;5060079;28;20222;-45
2023/02/08 07:07:05;;;;;;;60.30;39.90;;;-4.00;99.90;;;;;;5061130;28;20272;-48
2023/02/08 07:09:32;;;;;;;58.07;37.70;;;-4.00;99.90;;;;;;5059853;28;20234;-46
2023/02/08 07:11:58;;;;;;;52.85;37.75;;;-4.00;99.90;;;;;;5061133;28;20188;-48
2023/02/08 07:14:24;;;;;;;56.90;38.40;;;-4.00;99.90;;;;;;5061600;28;20631;-45
2023/02/08 07:16:50;;;;;;;58.47;39.60;;;-4.00;99.90;;;;;;5060609;28;20434;-45
2023/02/08 07:19:16;;;;;;;51.42;37.15;;;-3.90;99.90;;;;;;5059849;28;20667;-48
2023/02/08 07:21:41;;;;;;;62.10;39.67;;;-3.90;99.90;;;;;;5060802;28;20201;-48
2023/02/08 07:24:07;;;;;;;61.03;37.73;;;-3.90;99.90;;;;;;5060872;28;20614;-47
2023/02/08 07:26:32;;;;;;;53.10;37.00;;;-3.80;99.90;;;;;;5061247;28;20205;-46
2023/02/08 07:28:58;;;;;;;53.03;36.70;;;-3.70;99.90;;;;;;5060752;28;20256;-45
2023/02/08 07:31:24;;;;;;;56.30;37.78;;;-3.70;99.90;;;;;;5060896;28;20193;-44
2023/02/08 07:33:50;;;;;;;58.33;37.90;;;-3.60;99.90;;;;;;5060846;28;20780;-48
2023/02/08 07:36:15;;;;;;;62.60;40.60;;;-3.50;99.90;;;;;;5058915;28;20233;-44
2023/02/08 07:38:41;;;;;;;55.17;36.53;;;-3.50;99.90;;;;;;5060447;28;20181;-44
2023/02/08 07:41:09;;;;;;;58.47;38.90;;;-3.40;99.90;;;;;;5060419;28;20181;-49
2023/02/08 07:43:36;;;;;;;55.63;35.95;;;-3.40;99.90;;;;;;5060695;28;20177;-46
2023/02/08 07:46:10;;;;;;;52.75;37.35;;;-3.30;99.90;;;;;;5061047;28;20270;-46
2023/02/08 07:48:36;;;;;;;56.88;39.63;;;-3.30;99.90;;;;;;5060115;28;20578;-46
2023/02/08 07:51:02;;;;;;;54.55;37.40;;;-3.20;99.90;;;;;;5060276;28;20377;-46
2023/02/08 07:53:28;;;;;;;51.30;37.38;;;-3.20;99.90;;;;;;5058923;28;20185;-44
2023/02/08 07:55:54;;;;;;;57.45;39.00;;;-3.10;99.90;;;;;;5060326;28;20674;-47
2023/02/08 07:58:20;;;;;;;55.77;38.63;;;-3.00;99.90;;;;;;5060681;28;20190;-46
2023/02/08 08:00:45;;;;;;;59.67;39.97;;;-3.00;99.90;;;;;;5060259;28;20458;-47
2023/02/08 08:03:11;;;;;;;55.60;39.13;;;-2.90;99.90;;;;;;5060107;28;20201;-46
2023/02/08 08:05:40;;;;;;;52.53;39.07;;;-2.70;99.90;;;;;;5060058;28;20239;-46
2023/02/08 08:08:06;;;;;;;60.40;41.25;;;-2.60;99.90;;;;;;5059685;28;20239;-47
2023/02/08 08:10:32;;;;;;;61.97;40.20;;;-2.40;99.90;;;;;;5060046;28;20195;-44
2023/02/08 08:12:58;;;;;;;59.22;41.33;;;-2.10;99.90;;;;;;5058669;28;20181;-46
2023/02/08 08:15:24;;;;;;;49.57;38.07;;;-1.80;99.90;;;;;;5059860;28;20188;-46
2023/02/08 08:17:49;;;;;;;58.77;39.70;;;-1.60;99.90;;;;;;5060032;28;20201;-47
2023/02/08 08:20:15;;;;;;;51.00;39.10;;;-1.40;99.90;;;;;;5059916;28;20192;-44
2023/02/08 08:22:41;;;;;;;56.35;39.65;;;-0.90;99.90;;;;;;5060061;28;20300;-47
2023/02/08 08:25:07;;;;;;;53.83;37.60;;;-0.60;99.90;;;;;;5059734;28;20189;-43
2023/02/08 08:27:34;;;;;;;49.00;37.23;;;-0.30;99.90;;;;;;5059722;28;20721;-51
2023/02/08 08:30:00;;;;;;;52.83;37.78;;;-0.10;99.90;;;;;;5060038;28;20990;-46
2023/02/08 08:32:25;;;;;;;50.08;36.63;;;0.10;99.90;;;;;;5059507;28;20186;-47
2023/02/08 08:34:51;;;;;;;44.00;35.43;;;0.40;99.90;;;;;;5058232;28;20179;-47
2023/02/08 08:37:17;;;;;;;47.93;37.00;;;0.80;99.90;;;;;;5059126;28;20206;-47
2023/02/08 08:39:42;;;;;;;47.00;36.97;;;0.90;99.90;;;;;;5060018;28;20646;-48
2023/02/08 08:42:08;;;;;;;44.60;35.83;;;1.30;99.90;;;;;;5058258;28;20223;-43
2023/02/08 08:44:33;;;;;;;42.47;34.60;;;1.50;99.90;;;;;;5059294;28;20187;-45
2023/02/08 08:46:59;;;;;;;43.40;34.37;;;1.80;99.90;;;;;;5059756;28;20188;-47
2023/02/08 08:49:27;;;;;;;45.80;34.80;;;1.80;99.90;;;;;;5059463;28;20520;-46
2023/02/08 08:51:53;;;;;;;42.42;33.90;;;2.10;99.90;;;;;;5058289;28;20882;-45
2023/02/08 08:54:20;;;;;;;42.90;34.83;;;2.60;98.70;;;;;;5059643;28;20184;-48
2023/02/08 08:56:46;;;;;;;42.42;34.15;;;3.10;95.90;;;;;;5059252;28;20196;-45
2023/02/08 08:59:11;;;;;;;39.60;34.47;;;3.30;93.60;;;;;;5057918;28;20180;-45
2023/02/08 09:01:37;;;;;;;40.47;34.03;;;3.30;90.90;;;;;;5059497;28;20216;-46
2023/02/08 09:04:03;;;;;;;40.53;33.35;;;3.30;89.90;;;;;;5059270;28;20423;-47
2023/02/08 09:06:29;;;;;;;40.27;35.20;;;3.20;90.20;;;;;;5059636;28;20784;-43
2023/02/08 09:08:55;;;;;;;44.08;34.15;;;3.50;90.60;;;;;;5059304;28;20437;-46
2023/02/08 09:11:21;;;;;;;38.83;32.80;;;3.60;88.00;;;;;;5059428;28;20193;-43
2023/02/08 09:13:51;;;;;;;39.47;34.90;;;4.00;85.40;;;;;;5059667;28;20189;-43
2023/02/08 09:16:18;;;;;;;36.95;33.05;;;4.10;84.70;;;;;;5059657;28;20460;-48
2023/02/08 09:18:44;;;;;;;34.78;29.42;;;4.00;79.30;;;;;;5059276;28;20195;-43
2023/02/08 09:21:11;;;;;;;34.67;30.98;;;4.10;79.90;;;;;;5058911;28;20238;-47
2023/02/08 09:23:37;;;;;;;34.65;29.92;;;4.30;77.60;;;;;;5059169;28;20196;-42
2023/02/08 09:26:09;;;;;;;35.22;31.42;;;4.20;76.00;;;;;;5059198;28;20193;-42
2023/02/08 09:28:34;;;;;;;34.42;30.10;;;4.30;73.60;;;;;;5057945;28;20655;-45
2023/02/08 09:31:14;;;;;;;34.57;29.60;;;4.30;70.50;;;;;;5059157;28;20192;-44
2023/02/08 09:33:39;;;;;;;31.88;28.02;;;4.30;72.10;;;;;;5058930;28;20423;-45
2023/02/08 09:36:06;;;;;;;32.03;28.13;;;4.50;70.00;;;;;;5059154;28;20509;-47
2023/02/08 09:38:32;;;;;;;33.55;29.52;;;4.50;67.60;;;;;;5058914;28;20189;-45
2023/02/08 09:41:16;;;;;;;32.38;28.40;;;4.50;68.10;;;;;;5057249;28;20398;-43
2023/02/08 09:44:13;;;;;;;38.42;30.98;;;4.40;66.80;;;;;;5059232;28;20181;-43
2023/02/08 09:46:44;;;;;;;30.95;27.58;;;4.50;67.70;;;;;;5059338;28;20177;-46
2023/02/08 09:49:17;;;;;;;34.05;29.25;;;4.60;66.40;;;;;;5059125;28;20220;-43
2023/02/08 09:51:49;;;;;;;34.30;29.30;;;4.30;66.50;;;;;;5062655;28;20236;-43
2023/02/08 09:54:26;;;;;;;33.55;29.95;;;4.70;66.50;;;;;;5062838;28;20238;-43
2023/02/08 09:56:53;;;;;;;33.20;28.52;;;4.80;63.00;;;;;;5050515;28;20228;-43
2023/02/08 09:59:28;;;;;;;34.30;29.20;;;5.20;62.40;;;;;;5062564;28;20184;-46
2023/02/08 10:02:30;;;;;;;33.10;29.48;;;5.30;60.00;;;;;;5062319;28;20573;-47
2023/02/08 10:05:01;;;;;;;31.63;28.30;;;5.30;60.70;;;;;;5042958;28;20566;-44
2023/02/08 10:07:28;;;;;;;33.08;29.60;;;5.60;59.00;;;;;;5061309;28;20268;-47
2023/02/08 10:09:57;;;;;;;32.92;29.48;;;5.70;57.90;;;;;;5062112;28;20909;-45
2023/02/08 10:13:06;;;;;;;33.33;29.35;;;5.60;57.90;;;;;;5062767;28;20189;-43
2023/02/08 10:16:06;;;;;;;31.70;28.00;;;6.00;57.10;;;;;;5062698;28;20445;-46
2023/02/08 10:18:51;;;;;;;33.13;28.10;;;6.10;55.20;;;;;;5038231;28;20287;-42
2023/02/08 10:21:42;;;;;;;32.27;28.83;;;6.20;55.10;;;;;;5061295;28;20454;-44
2023/02/08 10:24:26;;;;;;;32.33;28.77;;;6.30;54.30;;;;;;5061869;28;20831;-44
2023/02/08 10:27:20;;;;;;;32.07;28.17;;;6.60;54.20;;;;;;5062077;28;20418;-45
2023/02/08 10:30:03;;;;;;;33.27;29.87;;;7.00;53.50;;;;;;5062239;28;20412;-42
2023/02/08 10:32:49;;;;;;;33.33;29.93;;;7.00;50.50;;;;;;5062360;28;20419;-46
2023/02/08 10:35:40;;;;;;;34.70;31.00;;;7.40;50.80;;;;;;5062019;28;21193;-45
2023/02/08 10:38:20;;;;;;;33.20;29.37;;;7.80;50.30;;;;;;5061794;28;20432;-43
2023/02/08 10:40:51;;;;;;;33.90;30.30;;;8.20;46.90;;;;;;5061630;28;20431;-47
2023/02/08 10:43:31;;;;;;;33.07;29.67;;;7.50;46.40;;;;;;5061947;28;20459;-44
2023/02/08 10:46:10;;;;;;;32.07;28.87;;;7.50;47.80;;;;;;5061666;28;20415;-45
2023/02/08 10:49:08;;;;;;;33.27;29.20;;;7.60;47.40;;;;;;5061555;28;21194;-48
2023/02/08 10:51:35;;;;;;;33.87;30.50;;;7.90;46.10;;;;;;5033423;28;20467;-44
2023/02/08 10:54:01;;;;;;;33.40;29.80;;;7.90;46.10;;;;;;5061367;28;20795;-46
2023/02/08 10:56:29;;;;;;;31.20;28.07;;;6.70;46.80;;;;;;5061748;28;20415;-44
2023/02/08 10:58:57;;;;;;;31.80;28.20;;;6.20;46.60;;;;;;5061296;28;20193;-45
2023/02/08 11:01:23;;;;;;;30.03;26.93;;;6.40;47.60;;;;;;5061547;28;21314;-44
2023/02/08 11:03:59;;;;;;;31.50;28.10;;;6.70;47.80;;;;;;5061779;28;20428;-44
2023/02/08 11:06:26;;;;;;;31.17;28.03;;;7.20;49.50;;;;;;5061453;28;20536;-45
2023/02/08 11:08:57;;;;;;;31.07;27.63;;;8.00;47.10;;;;;;5061027;28;20938;-46
2023/02/08 11:11:25;;;;;;;32.30;27.57;;;8.50;44.90;;;;;;5061314;28;20828;-48
2023/02/08 11:13:52;;;;;;;32.07;28.80;;;8.00;43.00;;;;;;5060913;28;20435;-45
2023/02/08 11:16:23;;;;;;;29.60;26.47;;;7.70;44.20;;;;;;5061643;28;20427;-46
2023/02/08 11:18:57;;;;;;;31.60;27.93;;;7.80;44.20;;;;;;5060800;28;20485;-44
2023/02/08 11:21:33;;;;;;;31.63;28.27;;;7.90;45.70;;;;;;5061036;28;21158;-47
2023/02/08 11:24:05;;;;;;;31.90;28.80;;;7.90;44.90;;;;;;5060797;28;20421;-44
2023/02/08 11:26:36;;;;;;;28.57;25.67;;;8.10;43.70;;;;;;5060898;28;20408;-46
2023/02/08 11:29:19;;;;;;;32.03;28.70;;;7.30;43.50;;;;;;5061530;28;20411;-47
2023/02/08 11:31:55;;;;;;;31.67;28.37;;;7.90;45.50;;;;;;5060265;28;20432;-45
2023/02/08 11:34:47;;;;;;;31.63;28.33;;;7.90;43.20;;;;;;5060774;28;20449;-47
2023/02/08 11:37:24;;;;;;;31.73;28.47;;;8.60;42.90;;;;;;5058091;28;20438;-46
2023/02/08 11:39:55;;;;;;;30.77;27.67;;;9.00;42.30;;;;;;5060626;28;20931;-49
2023/02/08 11:42:25;;;;;;;28.77;25.97;;;9.00;41.30;;;;;;5060547;28;20490;-47
2023/02/08 11:44:53;;;;;;;30.70;27.70;;;9.10;40.30;;;;;;5060394;28;20408;-44
2023/02/08 11:47:24;;;;;;;31.40;28.40;;;8.90;39.20;;;;;;5059521;28;20424;-46
2023/02/08 11:49:56;;;;;;;31.03;27.93;;;8.00;40.70;;;;;;5059975;28;20961;-44
2023/02/08 11:52:25;;;;;;;32.00;28.60;;;7.60;41.40;;;;;;5060559;28;20503;-44
2023/02/08 11:54:52;;;;;;;30.60;27.50;;;6.90;42.90;;;;;;5060220;28;20408;-44
2023/02/08 11:57:28;;;;;;;30.93;27.73;;;7.20;44.10;;;;;;5060148;28;20451;-44
2023/02/08 12:00:17;;;;;;;31.60;28.50;;;7.70;43.70;;;;;;5060195;28;20511;-46
2023/02/08 12:02:45;;;;;;;28.67;25.87;;;8.00;42.50;;;;;;5060336;28;20957;-45
2023/02/08 12:05:17;;;;;;;29.93;26.93;;;7.60;42.10;;;;;;5060711;28;20780;-44
2023/02/08 12:07:55;;;;;;;28.80;26.10;;;6.70;42.30;;;;;;5060246;28;20764;-43
2023/02/08 12:10:30;;;;;;;29.30;26.40;;;7.00;44.00;;;;;;5060230;28;20493;-48
2023/02/08 12:13:05;;;;;;;28.80;26.03;;;7.60;43.60;;;;;;5059426;28;20407;-43
2023/02/08 12:15:39;;;;;;;28.67;25.77;;;7.70;43.00;;;;;;5060075;28;20775;-49
2023/02/08 12:18:24;;;;;;;28.50;25.63;;;8.20;41.40;;;;;;5060460;28;20439;-43
2023/02/08 12:21:05;;;;;;;27.97;25.10;;;8.10;41.40;;;;;;5059884;28;20838;-45
2023/02/08 12:23:43;;;;;;;27.73;25.03;;;8.00;42.40;;;;;;5059783;28;20420;-46
2023/02/08 12:26:22;;;;;;;28.97;26.20;;;7.80;40.90;;;;;;5059761;28;20506;-46
2023/02/08 12:29:03;;;;;;;28.43;25.30;;;6.40;41.30;;;;;;5058141;28;20510;-46
2023/02/08 12:32:06;;;;;;;27.57;24.77;;;6.70;43.30;;;;;;5059742;28;20439;-44
2023/02/08 12:34:50;;;;;;;25.60;23.20;;;7.10;42.40;;;;;;5059578;28;20545;-45
2023/02/08 12:40:48;;;;;;;26.33;23.77;;;6.30;44.20;;;;;;5060240;28;20406;-47
2023/02/08 12:43:32;;;;;;;27.25;24.38;;;5.70;45.10;;;;;;5059844;28;20282;-45
2023/02/08 12:46:17;;;;;;;26.80;23.97;;;5.90;45.10;;;;;;5059355;28;20192;-47
2023/02/08 12:49:01;;;;;;;25.23;22.60;;;5.80;44.90;;;;;;5059784;28;20433;-43
2023/02/08 12:51:33;;;;;;;26.25;23.55;;;5.20;45.30;;;;;;5059369;28;20243;-44